sensor_id;sensor_type;location;lat;lon;timestamp;P1;durP1;ratioP1;P2;durP2;ratioP2
37857;SDS011;23695;55.868;37.472;2022-08-01T00:01:39;10.45;;;3.40;;
37857;SDS011;23695;55.868;37.472;2022-08-01T00:04:04;10.57;;;2.90;;
37857;SDS011;23695;55.868;37.472;2022-08-01T00:06:30;6.78;;;3.05;;
37857;SDS011;23695;55.868;37.472;2022-08-01T00:08:56;9.25;;;3.30;;
37857;SDS011;23695;55.868;37.472;2022-08-01T00:11:22;8.55;;;3.42;;
37857;SDS011;23695;55.868;37.472;2022-08-01T00:13:48;9.25;;;3.17;;
37857;SDS011;23695;55.868;37.472;2022-08-01T00:16:13;9.27;;;3.10;;
37857;SDS011;23695;55.868;37.472;2022-08-01T00:18:39;6.07;;;3.20;;
37857;SDS011;23695;55.868;37.472;2022-08-01T00:21:05;15.00;;;3.80;;
37857;SDS011;23695;55.868;37.472;2022-08-01T00:23:31;5.07;;;3.20;;
37857;SDS011;23695;55.868;37.472;2022-08-01T00:25:57;13.60;;;4.68;;
37857;SDS011;23695;55.868;37.472;2022-08-01T00:28:22;7.28;;;3.47;;
37857;SDS011;23695;55.868;37.472;2022-08-01T00:30:48;9.98;;;3.72;;
37857;SDS011;23695;55.868;37.472;2022-08-01T00:33:14;8.85;;;3.40;;
37857;SDS011;23695;55.868;37.472;2022-08-01T00:35:40;13.40;;;3.47;;
37857;SDS011;23695;55.868;37.472;2022-08-01T00:38:06;13.15;;;3.88;;
37857;SDS011;23695;55.868;37.472;2022-08-01T00:40:31;9.85;;;3.55;;
37857;SDS011;23695;55.868;37.472;2022-08-01T00:42:57;8.45;;;3.58;;
37857;SDS011;23695;55.868;37.472;2022-08-01T00:45:23;11.60;;;3.08;;
37857;SDS011;23695;55.868;37.472;2022-08-01T00:47:49;8.18;;;2.70;;
37857;SDS011;23695;55.868;37.472;2022-08-01T00:50:15;11.32;;;4.10;;
37857;SDS011;23695;55.868;37.472;2022-08-01T00:52:41;7.38;;;3.35;;
37857;SDS011;23695;55.868;37.472;2022-08-01T00:55:08;10.00;;;3.75;;
37857;SDS011;23695;55.868;37.472;2022-08-01T00:57:36;9.65;;;3.70;;
37857;SDS011;23695;55.868;37.472;2022-08-01T01:00:03;9.02;;;3.88;;
37857;SDS011;23695;55.868;37.472;2022-08-01T01:02:30;10.13;;;3.70;;
37857;SDS011;23695;55.868;37.472;2022-08-01T01:04:57;9.43;;;4.15;;
37857;SDS011;23695;55.868;37.472;2022-08-01T01:07:29;10.88;;;3.97;;
37857;SDS011;23695;55.868;37.472;2022-08-01T01:12:43;7.90;;;3.67;;
37857;SDS011;23695;55.868;37.472;2022-08-01T01:15:30;13.90;;;3.97;;
37857;SDS011;23695;55.868;37.472;2022-08-01T01:20:51;7.72;;;4.18;;
37857;SDS011;23695;55.868;37.472;2022-08-01T01:26:40;6.28;;;3.50;;
37857;SDS011;23695;55.868;37.472;2022-08-01T01:32:08;7.38;;;4.07;;
37857;SDS011;23695;55.868;37.472;2022-08-01T01:34:41;12.90;;;4.90;;
37857;SDS011;23695;55.868;37.472;2022-08-01T01:37:11;11.07;;;4.57;;
37857;SDS011;23695;55.868;37.472;2022-08-01T01:39:41;11.90;;;4.38;;
37857;SDS011;23695;55.868;37.472;2022-08-01T01:42:09;9.15;;;4.35;;
37857;SDS011;23695;55.868;37.472;2022-08-01T01:44:36;12.80;;;4.38;;
37857;SDS011;23695;55.868;37.472;2022-08-01T01:47:04;8.18;;;4.05;;
37857;SDS011;23695;55.868;37.472;2022-08-01T01:49:31;15.00;;;4.63;;
37857;SDS011;23695;55.868;37.472;2022-08-01T01:51:59;11.75;;;4.03;;
37857;SDS011;23695;55.868;37.472;2022-08-01T01:54:31;7.25;;;3.58;;
37857;SDS011;23695;55.868;37.472;2022-08-01T01:57:00;19.33;;;5.60;;
37857;SDS011;23695;55.868;37.472;2022-08-01T01:59:29;9.45;;;3.70;;
37857;SDS011;23695;55.868;37.472;2022-08-01T02:01:58;13.07;;;3.42;;
37857;SDS011;23695;55.868;37.472;2022-08-01T02:04:26;9.73;;;4.05;;
37857;SDS011;23695;55.868;37.472;2022-08-01T02:06:54;8.90;;;4.10;;
37857;SDS011;23695;55.868;37.472;2022-08-01T02:09:21;9.07;;;4.30;;
37857;SDS011;23695;55.868;37.472;2022-08-01T02:11:49;10.27;;;4.03;;
37857;SDS011;23695;55.868;37.472;2022-08-01T02:14:16;15.82;;;3.92;;
37857;SDS011;23695;55.868;37.472;2022-08-01T02:16:44;10.32;;;3.85;;
37857;SDS011;23695;55.868;37.472;2022-08-01T02:19:18;9.80;;;3.63;;
37857;SDS011;23695;55.868;37.472;2022-08-01T02:24:14;9.00;;;3.08;;
37857;SDS011;23695;55.868;37.472;2022-08-01T02:26:47;9.43;;;4.00;;
37857;SDS011;23695;55.868;37.472;2022-08-01T02:29:22;8.40;;;3.50;;
37857;SDS011;23695;55.868;37.472;2022-08-01T02:31:53;6.68;;;3.47;;
37857;SDS011;23695;55.868;37.472;2022-08-01T02:34:20;8.65;;;3.85;;
37857;SDS011;23695;55.868;37.472;2022-08-01T02:36:48;9.73;;;3.47;;
37857;SDS011;23695;55.868;37.472;2022-08-01T02:39:17;5.53;;;3.42;;
37857;SDS011;23695;55.868;37.472;2022-08-01T02:41:47;7.72;;;3.50;;
37857;SDS011;23695;55.868;37.472;2022-08-01T02:44:26;14.52;;;3.60;;
37857;SDS011;23695;55.868;37.472;2022-08-01T02:46:59;14.67;;;3.80;;
37857;SDS011;23695;55.868;37.472;2022-08-01T02:49:31;11.70;;;3.63;;
37857;SDS011;23695;55.868;37.472;2022-08-01T02:51:59;13.10;;;3.13;;
37857;SDS011;23695;55.868;37.472;2022-08-01T02:54:27;5.95;;;3.28;;
37857;SDS011;23695;55.868;37.472;2022-08-01T02:56:56;11.18;;;4.03;;
37857;SDS011;23695;55.868;37.472;2022-08-01T02:59:23;10.38;;;3.35;;
37857;SDS011;23695;55.868;37.472;2022-08-01T03:01:52;9.25;;;3.05;;
37857;SDS011;23695;55.868;37.472;2022-08-01T03:04:21;8.02;;;3.22;;
37857;SDS011;23695;55.868;37.472;2022-08-01T03:06:48;12.38;;;2.90;;
37857;SDS011;23695;55.868;37.472;2022-08-01T03:09:17;17.63;;;3.40;;
37857;SDS011;23695;55.868;37.472;2022-08-01T03:11:44;6.88;;;2.95;;
37857;SDS011;23695;55.868;37.472;2022-08-01T03:14:11;6.43;;;2.80;;
37857;SDS011;23695;55.868;37.472;2022-08-01T03:16:39;6.60;;;3.00;;
37857;SDS011;23695;55.868;37.472;2022-08-01T03:19:08;5.32;;;2.92;;
37857;SDS011;23695;55.868;37.472;2022-08-01T03:21:36;12.25;;;3.28;;
37857;SDS011;23695;55.868;37.472;2022-08-01T03:24:04;14.23;;;3.47;;
37857;SDS011;23695;55.868;37.472;2022-08-01T03:26:32;10.93;;;3.17;;
37857;SDS011;23695;55.868;37.472;2022-08-01T03:29:06;6.65;;;2.70;;
37857;SDS011;23695;55.868;37.472;2022-08-01T03:31:37;7.38;;;3.22;;
37857;SDS011;23695;55.868;37.472;2022-08-01T03:34:07;9.60;;;3.05;;
37857;SDS011;23695;55.868;37.472;2022-08-01T03:36:33;5.15;;;2.42;;
37857;SDS011;23695;55.868;37.472;2022-08-01T03:39:18;7.57;;;2.25;;
37857;SDS011;23695;55.868;37.472;2022-08-01T03:41:51;4.60;;;2.00;;
37857;SDS011;23695;55.868;37.472;2022-08-01T03:44:24;6.05;;;2.35;;
37857;SDS011;23695;55.868;37.472;2022-08-01T03:46:56;6.57;;;2.10;;
37857;SDS011;23695;55.868;37.472;2022-08-01T03:49:28;4.65;;;2.28;;
37857;SDS011;23695;55.868;37.472;2022-08-01T03:51:57;6.90;;;2.55;;
37857;SDS011;23695;55.868;37.472;2022-08-01T03:54:28;6.77;;;2.53;;
37857;SDS011;23695;55.868;37.472;2022-08-01T03:56:59;9.48;;;2.33;;
37857;SDS011;23695;55.868;37.472;2022-08-01T03:59:26;9.15;;;2.63;;
37857;SDS011;23695;55.868;37.472;2022-08-01T04:01:52;6.65;;;3.05;;
37857;SDS011;23695;55.868;37.472;2022-08-01T04:04:18;8.95;;;3.17;;
37857;SDS011;23695;55.868;37.472;2022-08-01T04:06:45;8.63;;;2.30;;
37857;SDS011;23695;55.868;37.472;2022-08-01T04:09:11;9.82;;;2.80;;
37857;SDS011;23695;55.868;37.472;2022-08-01T04:11:37;6.18;;;2.53;;
37857;SDS011;23695;55.868;37.472;2022-08-01T04:14:03;7.18;;;2.40;;
37857;SDS011;23695;55.868;37.472;2022-08-01T04:16:29;10.55;;;2.53;;
37857;SDS011;23695;55.868;37.472;2022-08-01T04:18:55;9.45;;;2.38;;
37857;SDS011;23695;55.868;37.472;2022-08-01T04:21:22;9.98;;;2.47;;
37857;SDS011;23695;55.868;37.472;2022-08-01T04:23:50;7.85;;;2.60;;
37857;SDS011;23695;55.868;37.472;2022-08-01T04:26:18;6.57;;;2.55;;
37857;SDS011;23695;55.868;37.472;2022-08-01T04:28:46;8.77;;;2.63;;
37857;SDS011;23695;55.868;37.472;2022-08-01T04:31:15;7.47;;;2.97;;
37857;SDS011;23695;55.868;37.472;2022-08-01T04:33:44;12.27;;;3.22;;
37857;SDS011;23695;55.868;37.472;2022-08-01T04:36:13;9.95;;;2.80;;
37857;SDS011;23695;55.868;37.472;2022-08-01T04:38:44;5.32;;;3.10;;
37857;SDS011;23695;55.868;37.472;2022-08-01T04:41:12;9.25;;;3.67;;
37857;SDS011;23695;55.868;37.472;2022-08-01T04:43:38;6.10;;;2.75;;
37857;SDS011;23695;55.868;37.472;2022-08-01T04:46:06;9.38;;;3.22;;
37857;SDS011;23695;55.868;37.472;2022-08-01T04:48:33;6.13;;;2.80;;
37857;SDS011;23695;55.868;37.472;2022-08-01T04:51:01;9.48;;;3.10;;
37857;SDS011;23695;55.868;37.472;2022-08-01T04:53:27;12.35;;;3.20;;
37857;SDS011;23695;55.868;37.472;2022-08-01T04:55:53;6.10;;;2.55;;
37857;SDS011;23695;55.868;37.472;2022-08-01T04:58:19;15.35;;;2.75;;
37857;SDS011;23695;55.868;37.472;2022-08-01T05:00:45;6.50;;;2.63;;
37857;SDS011;23695;55.868;37.472;2022-08-01T05:03:11;20.38;;;3.17;;
37857;SDS011;23695;55.868;37.472;2022-08-01T05:05:37;14.93;;;3.08;;
37857;SDS011;23695;55.868;37.472;2022-08-01T05:08:03;9.60;;;2.50;;
37857;SDS011;23695;55.868;37.472;2022-08-01T05:10:29;8.30;;;2.75;;
37857;SDS011;23695;55.868;37.472;2022-08-01T05:12:56;8.45;;;2.75;;
37857;SDS011;23695;55.868;37.472;2022-08-01T05:15:21;9.52;;;2.50;;
37857;SDS011;23695;55.868;37.472;2022-08-01T05:17:47;6.13;;;2.60;;
37857;SDS011;23695;55.868;37.472;2022-08-01T05:20:13;9.13;;;2.70;;
37857;SDS011;23695;55.868;37.472;2022-08-01T05:22:39;8.35;;;2.50;;
37857;SDS011;23695;55.868;37.472;2022-08-01T05:25:05;9.38;;;2.35;;
37857;SDS011;23695;55.868;37.472;2022-08-01T05:27:31;8.32;;;2.30;;
37857;SDS011;23695;55.868;37.472;2022-08-01T05:30:02;3.88;;;1.10;;
37857;SDS011;23695;55.868;37.472;2022-08-01T05:32:29;7.20;;;1.88;;
37857;SDS011;23695;55.868;37.472;2022-08-01T05:34:57;5.35;;;1.80;;
37857;SDS011;23695;55.868;37.472;2022-08-01T05:37:23;6.05;;;2.05;;
37857;SDS011;23695;55.868;37.472;2022-08-01T05:39:48;4.38;;;1.83;;
37857;SDS011;23695;55.868;37.472;2022-08-01T05:42:14;6.95;;;2.03;;
37857;SDS011;23695;55.868;37.472;2022-08-01T05:44:40;4.03;;;1.77;;
37857;SDS011;23695;55.868;37.472;2022-08-01T05:47:06;4.95;;;1.90;;
37857;SDS011;23695;55.868;37.472;2022-08-01T05:49:32;12.95;;;2.13;;
37857;SDS011;23695;55.868;37.472;2022-08-01T05:51:57;4.22;;;1.80;;
37857;SDS011;23695;55.868;37.472;2022-08-01T05:54:23;3.05;;;1.70;;
37857;SDS011;23695;55.868;37.472;2022-08-01T05:56:50;10.18;;;2.33;;
37857;SDS011;23695;55.868;37.472;2022-08-01T05:59:15;13.40;;;2.85;;
37857;SDS011;23695;55.868;37.472;2022-08-01T06:01:41;7.07;;;2.00;;
37857;SDS011;23695;55.868;37.472;2022-08-01T06:04:07;8.25;;;2.08;;
37857;SDS011;23695;55.868;37.472;2022-08-01T06:06:33;3.00;;;1.65;;
37857;SDS011;23695;55.868;37.472;2022-08-01T06:08:58;9.18;;;1.98;;
37857;SDS011;23695;55.868;37.472;2022-08-01T06:11:24;7.10;;;1.65;;
37857;SDS011;23695;55.868;37.472;2022-08-01T06:13:50;4.57;;;1.58;;
37857;SDS011;23695;55.868;37.472;2022-08-01T06:16:16;6.45;;;1.55;;
37857;SDS011;23695;55.868;37.472;2022-08-01T06:18:42;12.18;;;1.63;;
37857;SDS011;23695;55.868;37.472;2022-08-01T06:21:08;5.15;;;1.90;;
37857;SDS011;23695;55.868;37.472;2022-08-01T06:23:34;6.30;;;1.67;;
37857;SDS011;23695;55.868;37.472;2022-08-01T06:26:00;8.45;;;1.40;;
37857;SDS011;23695;55.868;37.472;2022-08-01T06:28:25;4.38;;;1.15;;
37857;SDS011;23695;55.868;37.472;2022-08-01T06:30:51;7.25;;;1.40;;
37857;SDS011;23695;55.868;37.472;2022-08-01T06:33:17;5.05;;;1.10;;
37857;SDS011;23695;55.868;37.472;2022-08-01T06:35:43;7.03;;;1.52;;
37857;SDS011;23695;55.868;37.472;2022-08-01T06:38:09;10.90;;;1.40;;
37857;SDS011;23695;55.868;37.472;2022-08-01T06:40:34;4.22;;;1.60;;
37857;SDS011;23695;55.868;37.472;2022-08-01T06:43:00;5.75;;;1.65;;
37857;SDS011;23695;55.868;37.472;2022-08-01T06:45:26;5.57;;;1.80;;
37857;SDS011;23695;55.868;37.472;2022-08-01T06:47:52;4.80;;;1.40;;
37857;SDS011;23695;55.868;37.472;2022-08-01T06:50:18;6.43;;;1.38;;
37857;SDS011;23695;55.868;37.472;2022-08-01T06:52:44;6.13;;;1.52;;
37857;SDS011;23695;55.868;37.472;2022-08-01T06:55:09;7.07;;;2.20;;
37857;SDS011;23695;55.868;37.472;2022-08-01T06:57:36;6.25;;;1.90;;
37857;SDS011;23695;55.868;37.472;2022-08-01T07:00:06;10.05;;;1.83;;
37857;SDS011;23695;55.868;37.472;2022-08-01T07:02:36;8.27;;;1.67;;
37857;SDS011;23695;55.868;37.472;2022-08-01T07:05:02;6.07;;;1.98;;
37857;SDS011;23695;55.868;37.472;2022-08-01T07:07:30;7.68;;;1.88;;
37857;SDS011;23695;55.868;37.472;2022-08-01T07:09:56;8.20;;;2.20;;
37857;SDS011;23695;55.868;37.472;2022-08-01T07:12:22;5.85;;;1.50;;
37857;SDS011;23695;55.868;37.472;2022-08-01T07:14:48;8.93;;;1.70;;
37857;SDS011;23695;55.868;37.472;2022-08-01T07:17:14;7.25;;;1.73;;
37857;SDS011;23695;55.868;37.472;2022-08-01T07:19:40;7.50;;;1.85;;
37857;SDS011;23695;55.868;37.472;2022-08-01T07:22:05;12.57;;;1.98;;
37857;SDS011;23695;55.868;37.472;2022-08-01T07:24:31;6.32;;;1.90;;
37857;SDS011;23695;55.868;37.472;2022-08-01T07:26:57;5.82;;;2.08;;
37857;SDS011;23695;55.868;37.472;2022-08-01T07:29:23;8.32;;;1.88;;
37857;SDS011;23695;55.868;37.472;2022-08-01T07:31:50;5.47;;;1.70;;
37857;SDS011;23695;55.868;37.472;2022-08-01T07:34:18;8.70;;;2.05;;
37857;SDS011;23695;55.868;37.472;2022-08-01T07:36:44;7.55;;;1.73;;
37857;SDS011;23695;55.868;37.472;2022-08-01T07:39:10;6.28;;;1.50;;
37857;SDS011;23695;55.868;37.472;2022-08-01T07:41:36;7.07;;;3.08;;
37857;SDS011;23695;55.868;37.472;2022-08-01T07:44:01;8.00;;;2.00;;
37857;SDS011;23695;55.868;37.472;2022-08-01T07:46:27;5.00;;;1.52;;
37857;SDS011;23695;55.868;37.472;2022-08-01T07:48:55;6.82;;;1.77;;
37857;SDS011;23695;55.868;37.472;2022-08-01T07:51:21;9.13;;;2.10;;
37857;SDS011;23695;55.868;37.472;2022-08-01T07:53:47;10.23;;;1.95;;
37857;SDS011;23695;55.868;37.472;2022-08-01T07:56:12;4.95;;;1.75;;
37857;SDS011;23695;55.868;37.472;2022-08-01T07:58:38;2.97;;;1.73;;
37857;SDS011;23695;55.868;37.472;2022-08-01T08:01:04;8.27;;;1.80;;
37857;SDS011;23695;55.868;37.472;2022-08-01T08:03:30;4.28;;;1.70;;
37857;SDS011;23695;55.868;37.472;2022-08-01T08:05:55;5.20;;;1.65;;
37857;SDS011;23695;55.868;37.472;2022-08-01T08:08:21;6.72;;;1.55;;
37857;SDS011;23695;55.868;37.472;2022-08-01T08:10:47;7.68;;;2.28;;
37857;SDS011;23695;55.868;37.472;2022-08-01T08:13:13;5.80;;;1.67;;
37857;SDS011;23695;55.868;37.472;2022-08-01T08:15:39;4.32;;;1.70;;
37857;SDS011;23695;55.868;37.472;2022-08-01T08:18:04;5.80;;;1.88;;
37857;SDS011;23695;55.868;37.472;2022-08-01T08:20:31;8.75;;;2.42;;
37857;SDS011;23695;55.868;37.472;2022-08-01T08:22:57;7.13;;;1.95;;
37857;SDS011;23695;55.868;37.472;2022-08-01T08:25:24;8.02;;;2.08;;
37857;SDS011;23695;55.868;37.472;2022-08-01T08:27:51;8.70;;;2.63;;
37857;SDS011;23695;55.868;37.472;2022-08-01T08:30:17;12.15;;;2.50;;
37857;SDS011;23695;55.868;37.472;2022-08-01T08:32:43;5.68;;;2.20;;
37857;SDS011;23695;55.868;37.472;2022-08-01T08:35:09;12.93;;;2.40;;
37857;SDS011;23695;55.868;37.472;2022-08-01T08:37:36;9.68;;;2.40;;
37857;SDS011;23695;55.868;37.472;2022-08-01T08:40:03;13.23;;;2.13;;
37857;SDS011;23695;55.868;37.472;2022-08-01T08:42:30;7.68;;;2.42;;
37857;SDS011;23695;55.868;37.472;2022-08-01T08:44:56;6.28;;;1.83;;
37857;SDS011;23695;55.868;37.472;2022-08-01T08:47:22;15.18;;;2.30;;
37857;SDS011;23695;55.868;37.472;2022-08-01T08:49:52;3.42;;;1.63;;
37857;SDS011;23695;55.868;37.472;2022-08-01T08:52:19;3.67;;;1.55;;
37857;SDS011;23695;55.868;37.472;2022-08-01T08:54:46;8.90;;;2.00;;
37857;SDS011;23695;55.868;37.472;2022-08-01T08:57:14;6.95;;;1.95;;
37857;SDS011;23695;55.868;37.472;2022-08-01T08:59:40;5.45;;;1.65;;
37857;SDS011;23695;55.868;37.472;2022-08-01T09:02:08;6.28;;;2.20;;
37857;SDS011;23695;55.868;37.472;2022-08-01T09:04:35;8.38;;;1.80;;
37857;SDS011;23695;55.868;37.472;2022-08-01T09:07:04;4.68;;;1.73;;
37857;SDS011;23695;55.868;37.472;2022-08-01T09:09:30;5.65;;;2.03;;
37857;SDS011;23695;55.868;37.472;2022-08-01T09:11:56;6.10;;;1.95;;
37857;SDS011;23695;55.868;37.472;2022-08-01T09:14:23;7.35;;;2.17;;
37857;SDS011;23695;55.868;37.472;2022-08-01T09:19:34;5.82;;;1.70;;
37857;SDS011;23695;55.868;37.472;2022-08-01T09:22:02;4.70;;;3.20;;
37857;SDS011;23695;55.868;37.472;2022-08-01T09:24:31;5.45;;;2.10;;
37857;SDS011;23695;55.868;37.472;2022-08-01T09:26:57;8.45;;;2.00;;
37857;SDS011;23695;55.868;37.472;2022-08-01T09:29:26;8.02;;;1.75;;
37857;SDS011;23695;55.868;37.472;2022-08-01T09:31:53;4.82;;;1.77;;
37857;SDS011;23695;55.868;37.472;2022-08-01T09:34:26;7.55;;;1.90;;
37857;SDS011;23695;55.868;37.472;2022-08-01T09:36:54;5.18;;;1.77;;
37857;SDS011;23695;55.868;37.472;2022-08-01T09:39:22;6.47;;;1.90;;
37857;SDS011;23695;55.868;37.472;2022-08-01T09:41:53;5.38;;;2.20;;
37857;SDS011;23695;55.868;37.472;2022-08-01T09:44:36;8.80;;;1.90;;
37857;SDS011;23695;55.868;37.472;2022-08-01T09:47:06;9.43;;;2.40;;
37857;SDS011;23695;55.868;37.472;2022-08-01T09:49:33;9.70;;;2.22;;
37857;SDS011;23695;55.868;37.472;2022-08-01T09:52:09;4.70;;;2.33;;
37857;SDS011;23695;55.868;37.472;2022-08-01T09:54:37;4.90;;;2.58;;
37857;SDS011;23695;55.868;37.472;2022-08-01T09:59:37;7.45;;;1.98;;
37857;SDS011;23695;55.868;37.472;2022-08-01T10:02:07;5.38;;;2.08;;
37857;SDS011;23695;55.868;37.472;2022-08-01T10:04:33;16.92;;;2.50;;
37857;SDS011;23695;55.868;37.472;2022-08-01T10:07:04;8.68;;;2.40;;
37857;SDS011;23695;55.868;37.472;2022-08-01T10:09:33;8.98;;;1.75;;
37857;SDS011;23695;55.868;37.472;2022-08-01T10:12:01;7.50;;;2.50;;
37857;SDS011;23695;55.868;37.472;2022-08-01T10:14:28;3.70;;;2.10;;
37857;SDS011;23695;55.868;37.472;2022-08-01T10:16:56;4.60;;;2.13;;
37857;SDS011;23695;55.868;37.472;2022-08-01T10:19:26;5.10;;;1.98;;
37857;SDS011;23695;55.868;37.472;2022-08-01T10:21:55;3.07;;;1.90;;
37857;SDS011;23695;55.868;37.472;2022-08-01T10:24:22;2.85;;;2.03;;
37857;SDS011;23695;55.868;37.472;2022-08-01T10:26:51;4.20;;;2.08;;
37857;SDS011;23695;55.868;37.472;2022-08-01T10:29:20;7.18;;;2.20;;
37857;SDS011;23695;55.868;37.472;2022-08-01T10:31:46;4.95;;;1.90;;
37857;SDS011;23695;55.868;37.472;2022-08-01T10:34:12;7.28;;;2.08;;
37857;SDS011;23695;55.868;37.472;2022-08-01T10:36:44;9.05;;;2.53;;
37857;SDS011;23695;55.868;37.472;2022-08-01T10:39:11;8.25;;;2.03;;
37857;SDS011;23695;55.868;37.472;2022-08-01T10:41:38;5.85;;;2.58;;
37857;SDS011;23695;55.868;37.472;2022-08-01T10:44:07;5.72;;;1.70;;
37857;SDS011;23695;55.868;37.472;2022-08-01T10:46:34;3.45;;;1.92;;
37857;SDS011;23695;55.868;37.472;2022-08-01T10:49:08;6.65;;;2.70;;
37857;SDS011;23695;55.868;37.472;2022-08-01T10:51:38;8.73;;;2.45;;
37857;SDS011;23695;55.868;37.472;2022-08-01T10:54:05;11.23;;;3.20;;
37857;SDS011;23695;55.868;37.472;2022-08-01T10:56:39;11.25;;;2.35;;
37857;SDS011;23695;55.868;37.472;2022-08-01T10:59:09;17.92;;;3.90;;
37857;SDS011;23695;55.868;37.472;2022-08-01T11:01:35;6.75;;;2.55;;
37857;SDS011;23695;55.868;37.472;2022-08-01T11:04:19;6.82;;;2.40;;
37857;SDS011;23695;55.868;37.472;2022-08-01T11:09:21;7.80;;;2.75;;
37857;SDS011;23695;55.868;37.472;2022-08-01T11:12:00;8.27;;;2.63;;
37857;SDS011;23695;55.868;37.472;2022-08-01T11:14:30;6.63;;;2.47;;
37857;SDS011;23695;55.868;37.472;2022-08-01T11:17:13;6.75;;;2.33;;
37857;SDS011;23695;55.868;37.472;2022-08-01T11:33:09;11.55;;;2.08;;
37857;SDS011;23695;55.868;37.472;2022-08-01T11:35:36;7.40;;;2.55;;
37857;SDS011;23695;55.868;37.472;2022-08-01T11:38:23;11.65;;;2.83;;
37857;SDS011;23695;55.868;37.472;2022-08-01T11:46:54;9.77;;;2.85;;
37857;SDS011;23695;55.868;37.472;2022-08-01T11:52:12;6.55;;;2.22;;
37857;SDS011;23695;55.868;37.472;2022-08-01T11:54:53;12.15;;;2.63;;
37857;SDS011;23695;55.868;37.472;2022-08-01T11:57:40;7.78;;;2.30;;
37857;SDS011;23695;55.868;37.472;2022-08-01T12:00:13;7.70;;;2.63;;
37857;SDS011;23695;55.868;37.472;2022-08-01T12:02:41;5.60;;;2.58;;
37857;SDS011;23695;55.868;37.472;2022-08-01T12:05:09;10.13;;;2.38;;
37857;SDS011;23695;55.868;37.472;2022-08-01T12:07:37;11.13;;;2.75;;
37857;SDS011;23695;55.868;37.472;2022-08-01T12:12:31;6.97;;;2.63;;
37857;SDS011;23695;55.868;37.472;2022-08-01T12:14:59;4.80;;;2.30;;
37857;SDS011;23695;55.868;37.472;2022-08-01T12:17:38;5.47;;;2.75;;
37857;SDS011;23695;55.868;37.472;2022-08-01T12:20:04;7.43;;;2.30;;
37857;SDS011;23695;55.868;37.472;2022-08-01T12:22:46;5.47;;;2.35;;
37857;SDS011;23695;55.868;37.472;2022-08-01T12:25:13;7.90;;;2.45;;
37857;SDS011;23695;55.868;37.472;2022-08-01T12:27:42;9.48;;;2.55;;
37857;SDS011;23695;55.868;37.472;2022-08-01T12:30:12;10.02;;;2.65;;
37857;SDS011;23695;55.868;37.472;2022-08-01T12:32:44;11.93;;;2.90;;
37857;SDS011;23695;55.868;37.472;2022-08-01T12:35:13;10.82;;;2.33;;
37857;SDS011;23695;55.868;37.472;2022-08-01T12:37:41;7.63;;;2.78;;
37857;SDS011;23695;55.868;37.472;2022-08-01T12:42:42;6.90;;;2.60;;
37857;SDS011;23695;55.868;37.472;2022-08-01T12:45:09;5.95;;;2.42;;
37857;SDS011;23695;55.868;37.472;2022-08-01T12:47:38;5.68;;;2.55;;
37857;SDS011;23695;55.868;37.472;2022-08-01T12:50:05;6.40;;;2.30;;
37857;SDS011;23695;55.868;37.472;2022-08-01T12:52:33;8.70;;;2.78;;
37857;SDS011;23695;55.868;37.472;2022-08-01T12:55:10;5.60;;;2.78;;
37857;SDS011;23695;55.868;37.472;2022-08-01T12:57:44;6.90;;;2.45;;
37857;SDS011;23695;55.868;37.472;2022-08-01T13:00:19;5.55;;;2.88;;
37857;SDS011;23695;55.868;37.472;2022-08-01T13:02:47;7.05;;;2.63;;
37857;SDS011;23695;55.868;37.472;2022-08-01T13:05:15;6.90;;;2.10;;
37857;SDS011;23695;55.868;37.472;2022-08-01T13:07:45;9.77;;;2.50;;
37857;SDS011;23695;55.868;37.472;2022-08-01T13:10:13;9.10;;;2.55;;
37857;SDS011;23695;55.868;37.472;2022-08-01T13:12:42;5.82;;;2.42;;
37857;SDS011;23695;55.868;37.472;2022-08-01T13:15:18;8.93;;;2.63;;
37857;SDS011;23695;55.868;37.472;2022-08-01T13:17:45;11.32;;;2.67;;
37857;SDS011;23695;55.868;37.472;2022-08-01T13:20:21;5.50;;;2.17;;
37857;SDS011;23695;55.868;37.472;2022-08-01T13:22:47;7.93;;;2.20;;
37857;SDS011;23695;55.868;37.472;2022-08-01T13:25:14;7.32;;;2.25;;
37857;SDS011;23695;55.868;37.472;2022-08-01T13:27:41;7.65;;;2.38;;
37857;SDS011;23695;55.868;37.472;2022-08-01T13:30:14;7.63;;;2.63;;
37857;SDS011;23695;55.868;37.472;2022-08-01T13:32:43;9.00;;;2.55;;
37857;SDS011;23695;55.868;37.472;2022-08-01T13:35:22;7.18;;;2.63;;
37857;SDS011;23695;55.868;37.472;2022-08-01T13:37:48;8.77;;;2.30;;
37857;SDS011;23695;55.868;37.472;2022-08-01T13:40:22;6.70;;;2.00;;
37857;SDS011;23695;55.868;37.472;2022-08-01T13:42:53;6.20;;;1.67;;
37857;SDS011;23695;55.868;37.472;2022-08-01T13:45:21;8.20;;;2.22;;
37857;SDS011;23695;55.868;37.472;2022-08-01T13:47:49;6.43;;;2.10;;
37857;SDS011;23695;55.868;37.472;2022-08-01T13:50:14;11.23;;;2.15;;
37857;SDS011;23695;55.868;37.472;2022-08-01T13:52:41;4.30;;;1.60;;
37857;SDS011;23695;55.868;37.472;2022-08-01T13:55:07;4.82;;;2.35;;
37857;SDS011;23695;55.868;37.472;2022-08-01T13:57:33;9.25;;;2.50;;
37857;SDS011;23695;55.868;37.472;2022-08-01T13:59:59;7.65;;;2.33;;
37857;SDS011;23695;55.868;37.472;2022-08-01T14:02:25;6.85;;;2.83;;
37857;SDS011;23695;55.868;37.472;2022-08-01T14:04:52;7.18;;;2.50;;
37857;SDS011;23695;55.868;37.472;2022-08-01T14:07:19;3.97;;;2.33;;
37857;SDS011;23695;55.868;37.472;2022-08-01T14:09:45;10.13;;;2.17;;
37857;SDS011;23695;55.868;37.472;2022-08-01T14:12:11;9.88;;;2.35;;
37857;SDS011;23695;55.868;37.472;2022-08-01T14:14:37;7.45;;;2.78;;
37857;SDS011;23695;55.868;37.472;2022-08-01T14:17:03;6.72;;;2.53;;
37857;SDS011;23695;55.868;37.472;2022-08-01T14:19:29;8.52;;;3.00;;
37857;SDS011;23695;55.868;37.472;2022-08-01T14:21:56;13.15;;;2.83;;
37857;SDS011;23695;55.868;37.472;2022-08-01T14:24:22;13.70;;;2.53;;
37857;SDS011;23695;55.868;37.472;2022-08-01T14:26:49;6.03;;;2.10;;
37857;SDS011;23695;55.868;37.472;2022-08-01T14:29:15;7.35;;;2.42;;
37857;SDS011;23695;55.868;37.472;2022-08-01T14:31:41;7.38;;;2.30;;
37857;SDS011;23695;55.868;37.472;2022-08-01T14:34:06;6.75;;;2.10;;
37857;SDS011;23695;55.868;37.472;2022-08-01T14:36:32;4.47;;;1.98;;
37857;SDS011;23695;55.868;37.472;2022-08-01T14:38:58;6.75;;;2.30;;
37857;SDS011;23695;55.868;37.472;2022-08-01T14:41:24;7.68;;;2.17;;
37857;SDS011;23695;55.868;37.472;2022-08-01T14:43:50;6.38;;;2.72;;
37857;SDS011;23695;55.868;37.472;2022-08-01T14:46:16;6.57;;;2.40;;
37857;SDS011;23695;55.868;37.472;2022-08-01T14:48:41;12.68;;;2.78;;
37857;SDS011;23695;55.868;37.472;2022-08-01T14:51:07;10.43;;;3.03;;
37857;SDS011;23695;55.868;37.472;2022-08-01T14:53:33;9.52;;;2.50;;
37857;SDS011;23695;55.868;37.472;2022-08-01T14:56:05;4.28;;;2.25;;
37857;SDS011;23695;55.868;37.472;2022-08-01T15:00:58;6.05;;;2.58;;
37857;SDS011;23695;55.868;37.472;2022-08-01T15:03:24;9.80;;;2.53;;
37857;SDS011;23695;55.868;37.472;2022-08-01T15:05:49;9.40;;;2.72;;
37857;SDS011;23695;55.868;37.472;2022-08-01T15:08:15;6.95;;;2.92;;
37857;SDS011;23695;55.868;37.472;2022-08-01T15:10:41;10.55;;;2.38;;
37857;SDS011;23695;55.868;37.472;2022-08-01T15:13:07;8.18;;;2.13;;
37857;SDS011;23695;55.868;37.472;2022-08-01T15:15:33;7.43;;;2.53;;
37857;SDS011;23695;55.868;37.472;2022-08-01T15:17:59;6.45;;;2.40;;
37857;SDS011;23695;55.868;37.472;2022-08-01T15:20:25;8.32;;;2.97;;
37857;SDS011;23695;55.868;37.472;2022-08-01T15:22:52;10.65;;;2.70;;
37857;SDS011;23695;55.868;37.472;2022-08-01T15:25:18;8.85;;;2.25;;
37857;SDS011;23695;55.868;37.472;2022-08-01T15:27:45;13.95;;;2.58;;